首页
METAR-TAF:

METAR-TAF

机场 :

查尔斯顿, 南卡罗来纳州, 美国

纬度: 32-42-03N, 经度: 080-00-10W, 海拔: 5米

当前天气观测

该预报发布于18分钟前的22:15 UTC
风速9节,风向南转西南,有时为16节阵风
温度 24°C
湿度 78%
气压 1017 hPa
能見度: 9.7公里
天空无云

METAR: KJZI 292215Z AUTO 20009G16KT 6SM HZ CLR 24/20 A3004 RMK AO2

时间: 18:33 (22:33 UTC)


TAF: 丢失

超过4000个机场的气象观测和天气预报(METAR&TAF报告)。

可查询的气象台以黄色和红色小点在地图上表示。

将鼠标移到小点上方,可查看气象台名称。

然后点击查看天气观测和预报。

如需切换地图:点击带黑十字的绿色按钮放大地图;点击带横线的绿色按钮缩小地图;或者点击绿色箭头查看邻近地区的地图。


METAR-TAF: